createdAt,value
2022-09-27T00:01:08.480Z,98772.25
2022-09-27T00:03:37.801Z,98777.16
2022-09-27T00:06:07.997Z,98766.59
2022-09-27T00:08:36.550Z,98770.97
2022-09-27T00:11:05.335Z,98775.19
2022-09-27T00:13:33.217Z,98782.34
2022-09-27T00:16:03.189Z,98774.19
2022-09-27T00:18:31.238Z,98776.28
2022-09-27T00:21:05.959Z,98776.19
2022-09-27T00:23:34.336Z,98775.91
2022-09-27T00:26:02.421Z,98781.38
2022-09-27T00:28:30.914Z,98783.69
2022-09-27T00:30:59.176Z,98785.59
2022-09-27T00:33:27.280Z,98785.50
2022-09-27T00:35:54.997Z,98784.41
2022-09-27T00:38:23.983Z,98784.25
2022-09-27T00:40:51.682Z,98791.66
2022-09-27T00:43:21.389Z,98787.22
2022-09-27T00:45:51.205Z,98791.34
2022-09-27T00:48:21.375Z,98783.94
2022-09-27T00:50:51.131Z,98793.09
2022-09-27T00:53:21.451Z,98783.03
2022-09-27T00:55:53.261Z,98789.06
2022-09-27T00:58:23.071Z,98794.31
2022-09-27T01:00:54.155Z,98782.41
2022-09-27T01:03:26.635Z,98786.97
2022-09-27T01:05:55.015Z,98793.94
2022-09-27T01:08:22.608Z,98796.00
2022-09-27T01:10:59.098Z,98783.56
2022-09-27T01:13:32.629Z,98791.31
2022-09-27T01:16:04.480Z,98795.78
2022-09-27T01:18:35.874Z,98804.00
2022-09-27T01:21:15.464Z,98811.75
2022-09-27T01:24:15.771Z,98805.16
2022-09-27T01:27:04.471Z,98807.53
2022-09-27T01:29:37.412Z,98807.22
2022-09-27T01:32:09.424Z,98812.22
2022-09-27T01:34:44.928Z,98805.03
2022-09-27T01:37:20.784Z,98808.69
2022-09-27T01:39:52.203Z,98801.81
2022-09-27T01:42:23.762Z,98811.84
2022-09-27T01:44:54.108Z,98803.28
2022-09-27T01:47:24.535Z,98811.50
2022-09-27T01:49:56.736Z,98808.38
2022-09-27T01:52:28.586Z,98813.19
2022-09-27T01:54:58.712Z,98798.09
2022-09-27T01:57:28.717Z,98807.91
2022-09-27T02:00:00.334Z,98803.16
2022-09-27T02:02:31.049Z,98807.91
2022-09-27T02:05:01.435Z,98808.28
2022-09-27T02:07:32.955Z,98810.53
2022-09-27T02:10:04.901Z,98807.84
2022-09-27T02:12:38.199Z,98814.97
2022-09-27T02:15:08.320Z,98806.41
2022-09-27T02:17:43.468Z,98802.34
2022-09-27T02:20:17.116Z,98807.66
2022-09-27T02:22:48.869Z,98811.13
2022-09-27T02:25:21.839Z,98804.22
2022-09-27T02:27:55.943Z,98801.81
2022-09-27T02:30:23.603Z,98807.44
2022-09-27T02:32:52.901Z,98808.09
2022-09-27T02:35:25.041Z,98797.13
2022-09-27T02:37:53.661Z,98794.28
2022-09-27T02:40:21.471Z,98803.34
2022-09-27T02:42:49.238Z,98803.41
2022-09-27T02:45:18.595Z,98811.53
2022-09-27T02:48:04.970Z,98804.75
2022-09-27T02:50:43.051Z,98809.91
2022-09-27T02:53:17.962Z,98814.78
2022-09-27T02:55:52.241Z,98808.09
2022-09-27T02:58:26.696Z,98808.56
2022-09-27T03:00:59.387Z,98814.00
2022-09-27T03:03:32.739Z,98805.09
2022-09-27T03:06:03.626Z,98819.59
2022-09-27T03:08:31.375Z,98812.47
2022-09-27T03:10:59.017Z,98807.66
2022-09-27T03:13:26.752Z,98809.88
2022-09-27T03:15:57.109Z,98809.19
2022-09-27T03:18:29.972Z,98813.69
2022-09-27T03:20:57.590Z,98808.75
2022-09-27T03:23:25.246Z,98808.50
2022-09-27T03:25:52.877Z,98805.72
2022-09-27T03:28:20.592Z,98806.25
2022-09-27T03:30:49.235Z,98806.06
2022-09-27T03:33:16.888Z,98801.75
2022-09-27T03:35:45.887Z,98811.50
2022-09-27T03:38:13.711Z,98805.97
2022-09-27T03:40:41.456Z,98809.06
2022-09-27T03:43:09.136Z,98813.69
2022-09-27T03:45:36.773Z,98811.78
2022-09-27T03:48:04.385Z,98803.56
2022-09-27T03:50:31.991Z,98811.50
2022-09-27T03:53:00.960Z,98798.59
2022-09-27T03:55:28.679Z,98804.44
2022-09-27T03:57:56.259Z,98810.03
2022-09-27T04:00:25.236Z,98818.19
2022-09-27T04:02:52.989Z,98813.97
2022-09-27T04:05:20.632Z,98825.66
2022-09-27T04:07:49.350Z,98820.91
2022-09-27T04:10:18.326Z,98831.22
2022-09-27T04:12:46.244Z,98830.50
2022-09-27T04:15:13.988Z,98824.03
2022-09-27T04:17:43.066Z,98820.69
2022-09-27T04:20:11.135Z,98831.78
2022-09-27T04:22:40.464Z,98832.41
2022-09-27T04:25:09.233Z,98832.47
2022-09-27T04:27:38.695Z,98838.88
2022-09-27T04:30:07.753Z,98837.88
2022-09-27T04:32:35.344Z,98837.63
2022-09-27T04:35:20.608Z,98839.63
2022-09-27T04:37:48.431Z,98832.97
2022-09-27T04:40:17.045Z,98833.84
2022-09-27T04:42:46.052Z,98831.06
2022-09-27T04:45:13.882Z,98830.03
2022-09-27T04:47:44.000Z,98832.94
2022-09-27T04:50:11.862Z,98837.94
2022-09-27T04:52:40.244Z,98835.09
2022-09-27T04:55:09.615Z,98837.00
2022-09-27T04:57:37.905Z,98838.69
2022-09-27T05:00:08.508Z,98834.13
2022-09-27T05:02:36.571Z,98831.59
2022-09-27T05:05:06.601Z,98841.31
2022-09-27T05:07:35.499Z,98842.13
2022-09-27T05:10:03.115Z,98854.56
2022-09-27T05:12:30.731Z,98843.00
2022-09-27T05:14:58.364Z,98854.44
2022-09-27T05:17:27.432Z,98854.94
2022-09-27T05:19:55.051Z,98855.78
2022-09-27T05:22:23.055Z,98862.09
2022-09-27T05:24:50.672Z,98857.09
2022-09-27T05:27:20.194Z,98861.25
2022-09-27T05:29:48.091Z,98857.19
2022-09-27T05:32:16.635Z,98860.78
2022-09-27T05:34:45.620Z,98855.78
2022-09-27T05:37:13.228Z,98858.03
2022-09-27T05:39:40.907Z,98856.84
2022-09-27T05:42:10.279Z,98851.84
2022-09-27T05:44:38.577Z,98857.81
2022-09-27T05:47:06.328Z,98859.25
2022-09-27T05:49:34.371Z,98863.66
2022-09-27T05:52:03.560Z,98866.38
2022-09-27T05:54:31.879Z,98868.56
2022-09-27T05:57:00.313Z,98869.50
2022-09-27T05:59:28.594Z,98859.72
2022-09-27T06:01:56.402Z,98863.28
2022-09-27T06:04:24.102Z,98862.81
2022-09-27T06:06:51.713Z,98865.56
2022-09-27T06:09:20.660Z,98870.09
2022-09-27T06:11:48.293Z,98872.03
2022-09-27T06:14:16.186Z,98870.47
2022-09-27T06:16:45.599Z,98877.50
2022-09-27T06:19:13.299Z,98876.56
2022-09-27T06:21:41.083Z,98884.81
2022-09-27T06:24:09.047Z,98887.88
2022-09-27T06:26:38.115Z,98879.53
2022-09-27T06:29:06.012Z,98891.47
2022-09-27T06:31:33.577Z,98891.03
2022-09-27T06:34:01.378Z,98897.47
2022-09-27T06:36:28.988Z,98899.16
2022-09-27T06:38:56.606Z,98903.78
2022-09-27T06:41:24.296Z,98904.78
2022-09-27T06:43:53.450Z,98903.88
2022-09-27T06:46:21.155Z,98905.97
2022-09-27T06:48:48.787Z,98911.13
2022-09-27T06:51:16.461Z,98907.31
2022-09-27T06:53:44.075Z,98907.47
2022-09-27T06:56:12.045Z,98904.59
2022-09-27T06:58:57.179Z,98910.56
2022-09-27T07:01:30.200Z,98911.75
2022-09-27T07:03:58.800Z,98910.94
2022-09-27T07:06:26.776Z,98919.16
2022-09-27T07:08:55.024Z,98917.25
2022-09-27T07:11:23.297Z,98918.53
2022-09-27T07:13:51.748Z,98923.09
2022-09-27T07:16:19.535Z,98918.19
2022-09-27T07:18:49.152Z,98905.97
2022-09-27T07:21:16.966Z,98918.78
2022-09-27T07:23:44.571Z,98917.13
2022-09-27T07:26:12.619Z,98914.91
2022-09-27T07:28:41.594Z,98921.25
2022-09-27T07:31:09.627Z,98928.41
2022-09-27T07:33:42.364Z,98935.75
2022-09-27T07:36:13.726Z,98926.78
2022-09-27T07:38:41.347Z,98929.69
2022-09-27T07:41:10.055Z,98925.44
2022-09-27T07:43:37.681Z,98930.78
2022-09-27T07:46:05.306Z,98936.34
2022-09-27T07:48:33.170Z,98946.38
2022-09-27T07:51:00.946Z,98939.03
2022-09-27T07:53:29.895Z,98934.13
2022-09-27T07:55:57.485Z,98941.94
2022-09-27T07:58:25.086Z,98960.63
2022-09-27T08:00:56.178Z,98955.81
2022-09-27T08:03:23.802Z,98955.25
2022-09-27T08:05:51.407Z,98947.34
2022-09-27T08:08:19.048Z,98951.53
2022-09-27T08:10:48.006Z,98948.13
2022-09-27T08:13:17.881Z,98956.03
2022-09-27T08:15:45.526Z,98966.44
2022-09-27T08:18:13.111Z,98968.91
2022-09-27T08:20:41.090Z,98976.25
2022-09-27T08:23:08.794Z,98975.97
2022-09-27T08:25:36.522Z,98974.06
2022-09-27T08:28:05.710Z,98972.88
2022-09-27T08:30:33.394Z,98971.63
2022-09-27T08:33:03.380Z,98977.88
2022-09-27T08:35:33.771Z,98982.91
2022-09-27T08:38:02.735Z,98972.22
2022-09-27T08:40:39.158Z,98986.16
2022-09-27T08:43:15.094Z,98972.75
2022-09-27T08:45:55.694Z,98980.72
2022-09-27T08:48:25.152Z,98974.84
2022-09-27T08:50:52.883Z,98976.56
2022-09-27T08:53:23.251Z,98981.59
2022-09-27T08:55:53.637Z,98983.63
2022-09-27T08:58:27.140Z,98962.31
2022-09-27T09:00:56.326Z,98966.63
2022-09-27T09:03:26.064Z,98978.03
2022-09-27T09:06:08.364Z,98966.97
2022-09-27T09:08:44.390Z,98973.63
2022-09-27T09:11:41.836Z,98962.94
2022-09-27T09:14:34.008Z,98982.09
2022-09-27T09:17:06.007Z,98981.28
2022-09-27T09:19:44.439Z,98985.44
2022-09-27T09:22:28.706Z,98979.06
2022-09-27T09:25:07.220Z,98988.63
2022-09-27T09:27:39.887Z,98977.22
2022-09-27T09:30:23.146Z,98978.44
2022-09-27T09:33:06.359Z,98981.59
2022-09-27T09:35:38.364Z,98992.38
2022-09-27T09:38:08.153Z,98988.47
2022-09-27T09:40:40.394Z,98988.72
2022-09-27T09:43:12.360Z,98982.13
2022-09-27T09:45:42.994Z,98969.91
2022-09-27T09:48:16.572Z,98989.72
2022-09-27T09:50:46.897Z,98982.38
2022-09-27T09:53:17.580Z,98991.13
2022-09-27T09:55:48.938Z,98983.50
2022-09-27T09:58:22.743Z,98980.75
2022-09-27T10:00:53.157Z,98985.84
2022-09-27T10:03:20.880Z,98991.66
2022-09-27T10:05:48.548Z,98992.94
2022-09-27T10:08:19.723Z,98975.97
2022-09-27T10:10:47.756Z,98986.69
2022-09-27T10:13:17.395Z,98980.75
2022-09-27T10:15:47.468Z,98970.16
2022-09-27T10:18:19.119Z,98977.34
2022-09-27T10:20:50.607Z,98978.75
2022-09-27T10:23:21.036Z,98978.84
2022-09-27T10:25:52.164Z,98974.19
2022-09-27T10:28:37.128Z,98973.53
2022-09-27T10:31:06.335Z,98973.72
2022-09-27T10:33:36.235Z,98976.59
2022-09-27T10:36:04.418Z,98965.06
2022-09-27T10:38:33.778Z,98965.56
2022-09-27T10:41:18.276Z,98979.44
2022-09-27T10:43:46.356Z,98980.19
2022-09-27T10:46:19.044Z,98973.47
2022-09-27T10:48:48.032Z,98979.72
2022-09-27T10:51:26.621Z,98977.59
2022-09-27T10:53:58.610Z,98966.56
2022-09-27T10:56:29.713Z,98988.47
2022-09-27T10:58:59.099Z,98976.84
2022-09-27T11:01:27.318Z,98975.19
2022-09-27T11:03:59.155Z,98977.13
2022-09-27T11:06:30.711Z,98994.59
2022-09-27T11:09:11.921Z,98987.47
2022-09-27T11:11:39.540Z,98970.09
2022-09-27T11:14:19.339Z,98981.66
2022-09-27T11:17:04.258Z,98990.47
2022-09-27T11:19:45.714Z,98980.47
2022-09-27T11:22:24.877Z,98987.88
2022-09-27T11:25:03.606Z,98977.38
2022-09-27T11:27:39.640Z,98969.59
2022-09-27T11:30:11.158Z,98981.09
2022-09-27T11:32:51.795Z,98973.31
2022-09-27T11:35:33.258Z,98989.56
2022-09-27T11:38:10.183Z,98988.22
2022-09-27T11:42:01.199Z,98982.72
2022-09-27T11:44:38.737Z,98981.38
2022-09-27T11:47:12.901Z,98986.53
2022-09-27T11:49:54.541Z,98999.16
2022-09-27T11:52:31.087Z,98990.81
2022-09-27T11:55:17.668Z,98997.09
2022-09-27T11:57:55.134Z,98978.69
2022-09-27T12:00:24.518Z,98983.28
2022-09-27T12:03:20.915Z,98980.41
2022-09-27T12:06:07.211Z,98986.78
2022-09-27T12:08:48.441Z,98985.06
2022-09-27T12:11:19.419Z,98989.06
2022-09-27T12:13:50.287Z,98998.59
2022-09-27T12:16:19.258Z,98980.69
2022-09-27T12:18:51.262Z,98988.53
2022-09-27T12:21:20.040Z,98984.50
2022-09-27T12:23:50.249Z,98980.69
2022-09-27T12:26:20.166Z,98973.50
2022-09-27T12:28:52.455Z,98988.03
2022-09-27T12:31:29.812Z,98987.97
2022-09-27T12:34:04.505Z,98982.91
2022-09-27T12:36:38.405Z,98985.75
2022-09-27T12:39:12.078Z,98987.78
2022-09-27T12:41:41.740Z,98986.97
2022-09-27T12:44:11.699Z,98983.25
2022-09-27T12:46:48.459Z,98977.81
2022-09-27T12:49:21.640Z,98977.69
2022-09-27T12:51:52.498Z,98980.19
2022-09-27T12:54:32.322Z,98996.25
2022-09-27T12:57:04.652Z,98982.56
2022-09-27T12:59:45.660Z,98985.44
2022-09-27T13:02:39.378Z,98975.44
2022-09-27T13:05:29.323Z,98975.72
2022-09-27T13:08:06.258Z,98987.25
2022-09-27T13:10:42.588Z,98979.63
2022-09-27T13:13:12.850Z,98986.94
2022-09-27T13:15:45.141Z,98986.72
2022-09-27T13:18:32.257Z,98982.75
2022-09-27T13:20:59.755Z,98972.66
2022-09-27T13:24:00.489Z,98976.16
2022-09-27T13:26:50.329Z,98981.97
2022-09-27T13:29:27.128Z,98974.06
2022-09-27T13:32:23.955Z,98987.22
2022-09-27T13:34:53.623Z,98976.16
2022-09-27T13:37:50.535Z,98981.59
2022-09-27T13:40:30.585Z,98989.34
2022-09-27T13:43:29.472Z,98997.44
2022-09-27T13:45:58.348Z,98992.09
2022-09-27T13:48:30.300Z,99006.63
2022-09-27T13:51:02.034Z,99004.59
2022-09-27T13:53:33.201Z,99003.44
2022-09-27T13:56:00.747Z,99001.59
2022-09-27T13:58:36.777Z,98997.16
2022-09-27T14:01:07.195Z,98995.78
2022-09-27T14:04:25.690Z,99001.31
2022-09-27T14:06:58.043Z,98996.00
2022-09-27T14:09:28.596Z,99002.91
2022-09-27T14:11:58.795Z,98997.75
2022-09-27T14:14:30.166Z,98976.41
2022-09-27T14:16:59.956Z,98989.19
2022-09-27T14:19:28.024Z,98995.97
2022-09-27T14:22:14.180Z,98977.53
2022-09-27T14:24:47.576Z,98997.94
2022-09-27T14:27:18.126Z,99003.72
2022-09-27T14:29:48.839Z,98996.63
2022-09-27T14:32:18.560Z,99008.13
2022-09-27T14:34:46.486Z,99014.28
2022-09-27T14:37:26.278Z,99015.66
2022-09-27T14:39:59.352Z,99007.63
2022-09-27T14:42:28.592Z,99018.50
2022-09-27T14:44:57.376Z,99010.13
2022-09-27T14:47:26.087Z,99016.81
2022-09-27T14:49:55.069Z,99015.56
2022-09-27T14:52:27.767Z,99013.22
2022-09-27T14:54:59.902Z,99019.81
2022-09-27T14:57:28.603Z,99013.50
2022-09-27T14:59:57.609Z,99011.19
2022-09-27T15:02:26.371Z,99013.50
2022-09-27T15:04:54.682Z,99020.44
2022-09-27T15:07:23.939Z,99007.09
2022-09-27T15:09:52.442Z,99014.81
2022-09-27T15:12:25.292Z,99008.41
2022-09-27T15:14:55.087Z,99013.28
2022-09-27T15:17:22.977Z,99011.91
2022-09-27T15:20:01.119Z,99007.19
2022-09-27T15:22:38.416Z,99011.31
2022-09-27T15:25:09.016Z,99011.81
2022-09-27T15:27:36.544Z,99005.16
2022-09-27T15:30:05.587Z,99017.47
2022-09-27T15:32:33.084Z,99003.53
2022-09-27T15:35:08.079Z,99005.72
2022-09-27T15:37:38.547Z,99006.00
2022-09-27T15:41:00.894Z,99013.25
2022-09-27T15:43:31.413Z,99005.41
2022-09-27T15:46:02.875Z,99005.56
2022-09-27T15:48:32.067Z,99007.03
2022-09-27T15:51:00.573Z,99010.72
2022-09-27T15:53:47.205Z,99016.22
2022-09-27T15:56:16.512Z,99007.38
2022-09-27T15:58:44.808Z,99008.16
2022-09-27T16:01:18.208Z,99013.63
2022-09-27T16:03:45.863Z,99018.66
2022-09-27T16:06:14.728Z,99014.88
2022-09-27T16:08:43.720Z,99011.50
2022-09-27T16:11:15.596Z,99012.38
2022-09-27T16:13:43.440Z,99014.72
2022-09-27T16:16:16.972Z,99000.13
2022-09-27T16:18:45.068Z,99002.25
2022-09-27T16:21:12.780Z,99002.22
2022-09-27T16:23:40.383Z,99000.50
2022-09-27T16:26:08.416Z,99006.47
2022-09-27T16:28:37.342Z,98998.41
2022-09-27T16:31:05.703Z,99000.66
2022-09-27T16:33:33.890Z,99001.56
2022-09-27T16:36:02.297Z,99000.47
2022-09-27T16:38:30.234Z,98996.31
2022-09-27T16:41:02.468Z,98999.22
2022-09-27T16:43:31.389Z,98990.19
2022-09-27T16:46:07.160Z,98992.38
2022-09-27T16:48:34.839Z,98988.34
2022-09-27T16:51:24.979Z,99004.28
2022-09-27T16:53:52.492Z,98989.97
2022-09-27T16:56:20.359Z,98993.41
2022-09-27T16:58:48.533Z,98991.47
2022-09-27T17:01:17.517Z,98991.91
2022-09-27T17:03:45.709Z,98987.84
2022-09-27T17:06:13.226Z,98991.91
2022-09-27T17:08:40.720Z,98987.03
2022-09-27T17:11:08.526Z,98998.69
2022-09-27T17:13:36.008Z,98988.03
2022-09-27T17:16:05.959Z,98985.72
2022-09-27T17:18:34.872Z,98991.34
2022-09-27T17:21:03.390Z,98992.59
2022-09-27T17:23:31.066Z,98989.25
2022-09-27T17:26:03.943Z,98989.41
2022-09-27T17:28:31.475Z,98990.09
2022-09-27T17:31:08.641Z,98994.34
2022-09-27T17:33:43.295Z,98984.41
2022-09-27T17:36:12.280Z,98979.31
2022-09-27T17:38:40.322Z,98984.59
2022-09-27T17:41:11.347Z,98982.63
2022-09-27T17:43:43.561Z,98979.97
2022-09-27T17:46:11.481Z,98979.41
2022-09-27T17:48:57.959Z,98968.06
2022-09-27T17:51:25.472Z,98975.38
2022-09-27T17:53:53.206Z,98977.84
2022-09-27T17:56:20.718Z,98980.28
2022-09-27T17:58:48.828Z,98981.69
2022-09-27T18:01:17.480Z,98982.88
2022-09-27T18:03:46.563Z,98981.81
2022-09-27T18:06:16.112Z,98965.91
2022-09-27T18:08:43.763Z,98976.84
2022-09-27T18:11:13.142Z,98972.44
2022-09-27T18:13:43.863Z,98980.84
2022-09-27T18:16:13.207Z,98977.25
2022-09-27T18:18:42.286Z,98979.50
2022-09-27T18:21:13.983Z,98986.50
2022-09-27T18:23:42.055Z,98978.72
2022-09-27T18:26:10.366Z,98977.91
2022-09-27T18:28:39.289Z,98986.78
2022-09-27T18:31:09.022Z,98981.25
2022-09-27T18:33:37.528Z,98977.19
2022-09-27T18:36:06.871Z,98984.69
2022-09-27T18:38:36.207Z,98978.97
2022-09-27T18:41:08.033Z,98981.09
2022-09-27T18:43:38.865Z,98979.72
2022-09-27T18:46:34.028Z,98981.38
2022-09-27T18:48:58.399Z,98975.59
2022-09-27T18:51:27.310Z,98973.66
2022-09-27T18:53:58.336Z,98966.72
2022-09-27T18:56:26.843Z,98972.03
2022-09-27T18:58:54.960Z,98963.41
2022-09-27T19:01:23.171Z,98964.81
2022-09-27T19:03:50.835Z,98958.16
2022-09-27T19:06:20.030Z,98957.00
2022-09-27T19:08:47.967Z,98957.84
2022-09-27T19:11:18.311Z,98958.13
2022-09-27T19:13:51.562Z,98968.31
2022-09-27T19:16:20.813Z,98964.00
2022-09-27T19:18:48.843Z,98957.06
2022-09-27T19:21:18.057Z,98961.22
2022-09-27T19:23:45.959Z,98960.66
2022-09-27T19:26:17.932Z,98957.59
2022-09-27T19:28:45.978Z,98953.69
2022-09-27T19:31:14.670Z,98954.25
2022-09-27T19:33:42.667Z,98947.25
2022-09-27T19:36:11.586Z,98950.63
2022-09-27T19:38:39.570Z,98943.28
2022-09-27T19:41:09.139Z,98942.16
2022-09-27T19:43:38.131Z,98947.19
2022-09-27T19:46:06.021Z,98949.63
2022-09-27T19:48:34.619Z,98943.88
2022-09-27T19:51:02.408Z,98944.03
2022-09-27T19:53:32.298Z,98947.03
2022-09-27T19:56:00.611Z,98949.56
2022-09-27T19:58:29.456Z,98951.69
2022-09-27T20:01:06.341Z,98946.56
2022-09-27T20:03:34.551Z,98945.53
2022-09-27T20:06:03.128Z,98944.78
2022-09-27T20:08:31.164Z,98937.75
2022-09-27T20:11:05.921Z,98942.47
2022-09-27T20:13:34.514Z,98937.84
2022-09-27T20:16:05.056Z,98941.94
2022-09-27T20:18:32.659Z,98941.84
2022-09-27T20:21:01.392Z,98936.91
2022-09-27T20:23:29.494Z,98926.84
2022-09-27T20:26:01.327Z,98931.78
2022-09-27T20:28:28.993Z,98947.81
2022-09-27T20:30:58.186Z,98943.44
2022-09-27T20:33:43.688Z,98941.63
2022-09-27T20:36:12.804Z,98936.41
2022-09-27T20:38:41.211Z,98930.19
2022-09-27T20:41:09.218Z,98928.75
2022-09-27T20:43:36.871Z,98926.94
2022-09-27T20:46:05.930Z,98923.66
2022-09-27T20:48:35.107Z,98921.53
2022-09-27T20:51:04.922Z,98925.94
2022-09-27T20:53:32.867Z,98923.47
2022-09-27T20:56:02.624Z,98914.28
2022-09-27T20:58:30.914Z,98912.28
2022-09-27T21:00:59.024Z,98917.94
2022-09-27T21:03:26.553Z,98911.25
2022-09-27T21:05:55.940Z,98907.66
2022-09-27T21:08:23.970Z,98898.13
2022-09-27T21:10:53.754Z,98897.41
2022-09-27T21:13:21.614Z,98896.50
2022-09-27T21:15:49.243Z,98904.78
2022-09-27T21:18:19.452Z,98907.38
2022-09-27T21:20:46.945Z,98901.63
2022-09-27T21:23:15.811Z,98892.69
2022-09-27T21:25:43.759Z,98896.59
2022-09-27T21:28:11.699Z,98898.56
2022-09-27T21:30:39.200Z,98889.78
2022-09-27T21:33:06.688Z,98900.00
2022-09-27T21:35:34.191Z,98900.44
2022-09-27T21:38:01.725Z,98902.81
2022-09-27T21:40:31.389Z,98900.00
2022-09-27T21:42:58.923Z,98898.09
2022-09-27T21:45:26.432Z,98906.97
2022-09-27T21:47:53.913Z,98897.63
2022-09-27T21:50:21.448Z,98892.03
2022-09-27T21:52:49.896Z,98901.06
2022-09-27T21:55:17.420Z,98895.78
2022-09-27T21:57:46.247Z,98898.03
2022-09-27T22:00:14.703Z,98902.53
2022-09-27T22:02:42.817Z,98898.59
2022-09-27T22:05:10.690Z,98892.59
2022-09-27T22:07:38.543Z,98904.75
2022-09-27T22:10:07.149Z,98890.38
2022-09-27T22:12:34.647Z,98902.75
2022-09-27T22:15:03.586Z,98897.53
2022-09-27T22:17:31.118Z,98906.50
2022-09-27T22:19:58.612Z,98900.88
2022-09-27T22:22:26.120Z,98894.50
2022-09-27T22:24:53.972Z,98888.16
2022-09-27T22:28:11.659Z,98900.00
2022-09-27T22:30:39.184Z,98901.78
2022-09-27T22:33:06.683Z,98888.53
2022-09-27T22:35:34.399Z,98893.16
2022-09-27T22:38:02.113Z,98889.13
2022-09-27T22:40:30.403Z,98893.44
2022-09-27T22:42:57.920Z,98889.31
2022-09-27T22:45:27.304Z,98874.59
2022-09-27T22:47:54.788Z,98876.97
2022-09-27T22:50:22.390Z,98880.16
2022-09-27T22:52:49.871Z,98882.81
2022-09-27T22:55:17.531Z,98881.03
2022-09-27T22:57:45.036Z,98885.16
2022-09-27T23:00:13.783Z,98882.22
2022-09-27T23:02:42.632Z,98874.13
2022-09-27T23:05:10.338Z,98869.59
2022-09-27T23:07:37.939Z,98864.41
2022-09-27T23:10:06.815Z,98869.66
2022-09-27T23:12:34.770Z,98867.72
2022-09-27T23:15:02.292Z,98871.34
2022-09-27T23:17:29.775Z,98871.41
2022-09-27T23:19:58.614Z,98867.22
2022-09-27T23:22:26.115Z,98861.25
2022-09-27T23:24:53.599Z,98862.38
2022-09-27T23:27:38.852Z,98856.06
2022-09-27T23:30:07.125Z,98855.00
2022-09-27T23:32:34.647Z,98855.00
2022-09-27T23:35:03.510Z,98850.56
2022-09-27T23:37:31.087Z,98850.00
2022-09-27T23:39:58.614Z,98843.03
2022-09-27T23:42:26.952Z,98837.16
2022-09-27T23:44:55.704Z,98835.97
2022-09-27T23:47:23.264Z,98831.09
2022-09-27T23:49:51.134Z,98839.69
2022-09-27T23:52:20.004Z,98836.03
2022-09-27T23:54:47.847Z,98832.16
2022-09-27T23:57:15.372Z,98826.50
2022-09-27T23:59:42.930Z,98828.59
